sensor_id;sensor_type;location;lat;lon;timestamp;P1;durP1;ratioP1;P2;durP2;ratioP2
20073;SDS011;10197;54.282;10.078;2024-03-23T00:56:02;22.02;;;5.90;;
20073;SDS011;10197;54.282;10.078;2024-03-23T00:58:28;23.50;;;5.93;;
20073;SDS011;10197;54.282;10.078;2024-03-23T01:00:55;28.52;;;5.70;;
20073;SDS011;10197;54.282;10.078;2024-03-23T01:03:21;24.55;;;5.50;;
20073;SDS011;10197;54.282;10.078;2024-03-23T01:05:48;23.20;;;6.07;;
20073;SDS011;10197;54.282;10.078;2024-03-23T01:08:14;24.05;;;4.85;;
20073;SDS011;10197;54.282;10.078;2024-03-23T01:10:42;28.70;;;5.78;;
20073;SDS011;10197;54.282;10.078;2024-03-23T01:13:08;21.80;;;5.65;;
20073;SDS011;10197;54.282;10.078;2024-03-23T01:15:35;23.58;;;5.45;;
20073;SDS011;10197;54.282;10.078;2024-03-23T01:18:00;22.58;;;4.93;;
20073;SDS011;10197;54.282;10.078;2024-03-23T01:20:27;22.67;;;5.97;;
20073;SDS011;10197;54.282;10.078;2024-03-23T01:22:53;29.40;;;5.53;;
20073;SDS011;10197;54.282;10.078;2024-03-23T01:25:20;26.45;;;5.60;;
20073;SDS011;10197;54.282;10.078;2024-03-23T01:27:47;21.20;;;4.78;;
20073;SDS011;10197;54.282;10.078;2024-03-23T01:30:14;25.65;;;5.25;;
20073;SDS011;10197;54.282;10.078;2024-03-23T01:32:40;23.23;;;5.20;;
20073;SDS011;10197;54.282;10.078;2024-03-23T01:35:07;21.08;;;5.30;;
20073;SDS011;10197;54.282;10.078;2024-03-23T01:37:33;30.08;;;5.85;;
20073;SDS011;10197;54.282;10.078;2024-03-23T01:40:00;28.50;;;6.40;;
20073;SDS011;10197;54.282;10.078;2024-03-23T01:42:26;24.60;;;5.15;;
20073;SDS011;10197;54.282;10.078;2024-03-23T01:44:54;22.58;;;5.38;;
20073;SDS011;10197;54.282;10.078;2024-03-23T01:47:19;24.88;;;5.18;;
20073;SDS011;10197;54.282;10.078;2024-03-23T01:49:46;19.73;;;5.45;;
20073;SDS011;10197;54.282;10.078;2024-03-23T01:52:13;30.80;;;6.35;;
20073;SDS011;10197;54.282;10.078;2024-03-23T01:54:40;27.92;;;5.78;;
20073;SDS011;10197;54.282;10.078;2024-03-23T01:57:06;22.83;;;5.20;;
20073;SDS011;10197;54.282;10.078;2024-03-23T01:59:32;22.27;;;5.00;;
20073;SDS011;10197;54.282;10.078;2024-03-23T02:01:59;27.55;;;6.13;;
20073;SDS011;10197;54.282;10.078;2024-03-23T02:04:27;23.23;;;4.65;;
20073;SDS011;10197;54.282;10.078;2024-03-23T02:06:53;25.38;;;5.30;;
20073;SDS011;10197;54.282;10.078;2024-03-23T02:09:20;26.20;;;5.53;;
20073;SDS011;10197;54.282;10.078;2024-03-23T02:11:46;22.98;;;6.10;;
20073;SDS011;10197;54.282;10.078;2024-03-23T02:14:13;21.63;;;5.55;;
20073;SDS011;10197;54.282;10.078;2024-03-23T02:16:38;23.15;;;5.13;;
20073;SDS011;10197;54.282;10.078;2024-03-23T02:19:08;24.05;;;5.18;;
20073;SDS011;10197;54.282;10.078;2024-03-23T02:21:33;18.70;;;4.68;;
20073;SDS011;10197;54.282;10.078;2024-03-23T02:24:01;19.02;;;4.80;;
20073;SDS011;10197;54.282;10.078;2024-03-23T02:26:27;19.55;;;4.57;;
20073;SDS011;10197;54.282;10.078;2024-03-23T02:28:54;20.88;;;5.43;;
20073;SDS011;10197;54.282;10.078;2024-03-23T02:31:19;21.73;;;5.10;;
20073;SDS011;10197;54.282;10.078;2024-03-23T02:33:46;26.65;;;5.72;;
20073;SDS011;10197;54.282;10.078;2024-03-23T02:36:12;18.40;;;4.47;;
20073;SDS011;10197;54.282;10.078;2024-03-23T02:38:38;19.60;;;4.55;;
20073;SDS011;10197;54.282;10.078;2024-03-23T02:41:05;32.78;;;5.57;;
20073;SDS011;10197;54.282;10.078;2024-03-23T02:43:32;22.95;;;5.18;;
20073;SDS011;10197;54.282;10.078;2024-03-23T02:45:58;23.67;;;4.55;;
20073;SDS011;10197;54.282;10.078;2024-03-23T02:48:26;29.73;;;5.88;;
20073;SDS011;10197;54.282;10.078;2024-03-23T02:50:51;17.10;;;4.28;;
20073;SDS011;10197;54.282;10.078;2024-03-23T02:53:19;29.63;;;6.35;;
20073;SDS011;10197;54.282;10.078;2024-03-23T02:55:45;33.38;;;5.68;;
20073;SDS011;10197;54.282;10.078;2024-03-23T02:58:13;25.02;;;5.60;;
20073;SDS011;10197;54.282;10.078;2024-03-23T03:00:38;24.02;;;4.75;;
20073;SDS011;10197;54.282;10.078;2024-03-23T03:03:05;23.60;;;4.50;;
20073;SDS011;10197;54.282;10.078;2024-03-23T03:05:32;16.10;;;3.97;;
20073;SDS011;10197;54.282;10.078;2024-03-23T03:07:59;26.13;;;4.47;;
20073;SDS011;10197;54.282;10.078;2024-03-23T03:10:24;25.63;;;4.93;;
20073;SDS011;10197;54.282;10.078;2024-03-23T03:12:51;21.77;;;5.72;;
20073;SDS011;10197;54.282;10.078;2024-03-23T03:15:18;19.83;;;4.43;;
20073;SDS011;10197;54.282;10.078;2024-03-23T03:17:45;20.67;;;5.15;;
20073;SDS011;10197;54.282;10.078;2024-03-23T03:20:10;26.50;;;5.40;;
20073;SDS011;10197;54.282;10.078;2024-03-23T03:22:39;19.55;;;5.38;;
20073;SDS011;10197;54.282;10.078;2024-03-23T03:25:05;20.52;;;4.70;;
20073;SDS011;10197;54.282;10.078;2024-03-23T03:27:33;22.77;;;4.82;;
20073;SDS011;10197;54.282;10.078;2024-03-23T03:29:59;22.33;;;5.28;;
20073;SDS011;10197;54.282;10.078;2024-03-23T03:32:28;19.83;;;4.55;;
20073;SDS011;10197;54.282;10.078;2024-03-23T03:34:54;22.60;;;4.93;;
20073;SDS011;10197;54.282;10.078;2024-03-23T03:37:21;17.08;;;4.63;;
20073;SDS011;10197;54.282;10.078;2024-03-23T03:39:46;18.92;;;4.90;;
20073;SDS011;10197;54.282;10.078;2024-03-23T03:42:13;18.92;;;4.50;;
20073;SDS011;10197;54.282;10.078;2024-03-23T03:44:40;29.23;;;5.40;;
20073;SDS011;10197;54.282;10.078;2024-03-23T03:47:06;15.85;;;4.28;;
20073;SDS011;10197;54.282;10.078;2024-03-23T03:49:34;17.27;;;4.03;;
20073;SDS011;10197;54.282;10.078;2024-03-23T03:52:00;22.42;;;4.10;;
20073;SDS011;10197;54.282;10.078;2024-03-23T03:54:27;22.70;;;5.25;;
20073;SDS011;10197;54.282;10.078;2024-03-23T03:56:53;21.95;;;4.90;;
20073;SDS011;10197;54.282;10.078;2024-03-23T03:59:19;13.98;;;4.15;;
20073;SDS011;10197;54.282;10.078;2024-03-23T04:01:45;24.70;;;4.38;;
20073;SDS011;10197;54.282;10.078;2024-03-23T04:04:12;18.40;;;4.15;;
20073;SDS011;10197;54.282;10.078;2024-03-23T04:06:40;13.30;;;4.10;;
20073;SDS011;10197;54.282;10.078;2024-03-23T04:09:07;9.38;;;3.50;;
20073;SDS011;10197;54.282;10.078;2024-03-23T04:11:33;13.88;;;4.00;;
20073;SDS011;10197;54.282;10.078;2024-03-23T04:13:59;14.85;;;3.80;;
20073;SDS011;10197;54.282;10.078;2024-03-23T04:16:26;16.15;;;4.00;;
20073;SDS011;10197;54.282;10.078;2024-03-23T04:18:53;17.83;;;4.32;;
20073;SDS011;10197;54.282;10.078;2024-03-23T04:21:19;17.58;;;4.18;;
20073;SDS011;10197;54.282;10.078;2024-03-23T04:23:47;13.95;;;4.00;;
20073;SDS011;10197;54.282;10.078;2024-03-23T04:26:13;12.57;;;4.13;;
20073;SDS011;10197;54.282;10.078;2024-03-23T04:28:40;14.75;;;4.07;;
20073;SDS011;10197;54.282;10.078;2024-03-23T04:31:05;20.95;;;4.40;;
20073;SDS011;10197;54.282;10.078;2024-03-23T04:33:32;22.83;;;5.68;;
20073;SDS011;10197;54.282;10.078;2024-03-23T04:35:58;20.35;;;4.80;;
20073;SDS011;10197;54.282;10.078;2024-03-23T04:38:25;19.33;;;5.72;;
20073;SDS011;10197;54.282;10.078;2024-03-23T04:40:56;17.98;;;4.82;;
20073;SDS011;10197;54.282;10.078;2024-03-23T04:43:23;19.88;;;5.47;;
20073;SDS011;10197;54.282;10.078;2024-03-23T04:45:50;18.17;;;5.35;;
20073;SDS011;10197;54.282;10.078;2024-03-23T04:48:19;16.05;;;4.85;;
20073;SDS011;10197;54.282;10.078;2024-03-23T04:50:47;21.25;;;5.03;;
20073;SDS011;10197;54.282;10.078;2024-03-23T04:53:14;25.23;;;5.43;;
20073;SDS011;10197;54.282;10.078;2024-03-23T04:55:41;19.60;;;6.35;;
20073;SDS011;10197;54.282;10.078;2024-03-23T04:58:09;22.00;;;5.95;;
20073;SDS011;10197;54.282;10.078;2024-03-23T05:00:35;27.52;;;6.57;;
20073;SDS011;10197;54.282;10.078;2024-03-23T05:03:01;22.92;;;5.90;;
20073;SDS011;10197;54.282;10.078;2024-03-23T05:05:29;19.17;;;5.45;;
20073;SDS011;10197;54.282;10.078;2024-03-23T05:07:55;20.30;;;5.15;;
20073;SDS011;10197;54.282;10.078;2024-03-23T05:10:21;18.08;;;4.82;;
20073;SDS011;10197;54.282;10.078;2024-03-23T05:12:47;15.65;;;5.50;;
20073;SDS011;10197;54.282;10.078;2024-03-23T05:15:15;17.55;;;5.00;;
20073;SDS011;10197;54.282;10.078;2024-03-23T05:17:41;14.48;;;4.90;;
20073;SDS011;10197;54.282;10.078;2024-03-23T05:20:08;19.73;;;6.15;;
20073;SDS011;10197;54.282;10.078;2024-03-23T05:22:35;16.40;;;5.25;;
20073;SDS011;10197;54.282;10.078;2024-03-23T05:25:02;19.17;;;5.95;;
20073;SDS011;10197;54.282;10.078;2024-03-23T05:27:31;24.65;;;5.72;;
20073;SDS011;10197;54.282;10.078;2024-03-23T05:29:58;29.42;;;6.72;;
20073;SDS011;10197;54.282;10.078;2024-03-23T05:32:25;26.10;;;7.97;;
20073;SDS011;10197;54.282;10.078;2024-03-23T05:34:53;22.88;;;6.32;;
20073;SDS011;10197;54.282;10.078;2024-03-23T05:37:21;24.73;;;7.43;;
20073;SDS011;10197;54.282;10.078;2024-03-23T05:39:48;29.00;;;8.05;;
20073;SDS011;10197;54.282;10.078;2024-03-23T05:42:15;23.60;;;7.35;;
20073;SDS011;10197;54.282;10.078;2024-03-23T05:44:42;22.23;;;7.10;;
20073;SDS011;10197;54.282;10.078;2024-03-23T05:47:08;23.38;;;7.47;;
20073;SDS011;10197;54.282;10.078;2024-03-23T05:49:37;31.95;;;7.88;;
20073;SDS011;10197;54.282;10.078;2024-03-23T05:52:02;26.35;;;7.13;;
20073;SDS011;10197;54.282;10.078;2024-03-23T05:54:29;24.23;;;6.55;;
20073;SDS011;10197;54.282;10.078;2024-03-23T05:56:55;28.52;;;6.53;;
20073;SDS011;10197;54.282;10.078;2024-03-23T05:59:22;22.20;;;7.60;;
20073;SDS011;10197;54.282;10.078;2024-03-23T06:01:48;21.00;;;7.05;;
20073;SDS011;10197;54.282;10.078;2024-03-23T06:04:14;31.92;;;7.20;;
20073;SDS011;10197;54.282;10.078;2024-03-23T06:06:41;20.10;;;6.28;;
20073;SDS011;10197;54.282;10.078;2024-03-23T06:09:08;23.38;;;6.25;;
20073;SDS011;10197;54.282;10.078;2024-03-23T06:11:34;19.50;;;6.05;;
20073;SDS011;10197;54.282;10.078;2024-03-23T06:14:00;21.40;;;6.30;;
20073;SDS011;10197;54.282;10.078;2024-03-23T06:16:26;23.13;;;7.07;;
20073;SDS011;10197;54.282;10.078;2024-03-23T06:18:53;32.75;;;7.75;;
20073;SDS011;10197;54.282;10.078;2024-03-23T06:21:20;23.75;;;6.60;;
20073;SDS011;10197;54.282;10.078;2024-03-23T06:23:50;17.33;;;5.70;;
20073;SDS011;10197;54.282;10.078;2024-03-23T06:26:17;25.30;;;7.63;;
20073;SDS011;10197;54.282;10.078;2024-03-23T06:28:44;26.45;;;7.40;;
20073;SDS011;10197;54.282;10.078;2024-03-23T06:31:11;22.42;;;6.45;;
20073;SDS011;10197;54.282;10.078;2024-03-23T06:33:37;24.83;;;7.63;;
20073;SDS011;10197;54.282;10.078;2024-03-23T06:36:04;25.60;;;7.63;;
20073;SDS011;10197;54.282;10.078;2024-03-23T06:38:30;33.97;;;7.30;;
20073;SDS011;10197;54.282;10.078;2024-03-23T06:40:58;23.50;;;6.95;;
20073;SDS011;10197;54.282;10.078;2024-03-23T06:43:24;25.33;;;7.45;;
20073;SDS011;10197;54.282;10.078;2024-03-23T06:45:54;28.70;;;6.85;;
20073;SDS011;10197;54.282;10.078;2024-03-23T06:48:20;34.83;;;7.03;;
20073;SDS011;10197;54.282;10.078;2024-03-23T06:50:47;21.10;;;6.55;;
20073;SDS011;10197;54.282;10.078;2024-03-23T06:53:12;25.02;;;7.15;;
20073;SDS011;10197;54.282;10.078;2024-03-23T06:55:39;27.77;;;7.53;;
20073;SDS011;10197;54.282;10.078;2024-03-23T06:58:06;27.35;;;7.20;;
20073;SDS011;10197;54.282;10.078;2024-03-23T07:00:35;24.77;;;7.15;;
20073;SDS011;10197;54.282;10.078;2024-03-23T07:03:01;28.25;;;8.10;;
20073;SDS011;10197;54.282;10.078;2024-03-23T07:05:29;33.20;;;9.43;;
20073;SDS011;10197;54.282;10.078;2024-03-23T07:07:54;26.13;;;8.32;;
20073;SDS011;10197;54.282;10.078;2024-03-23T07:10:21;32.92;;;8.55;;
20073;SDS011;10197;54.282;10.078;2024-03-23T07:12:47;33.50;;;9.10;;
20073;SDS011;10197;54.282;10.078;2024-03-23T07:15:15;24.70;;;8.35;;
20073;SDS011;10197;54.282;10.078;2024-03-23T07:17:41;36.53;;;8.68;;
20073;SDS011;10197;54.282;10.078;2024-03-23T07:20:08;30.70;;;8.25;;
20073;SDS011;10197;54.282;10.078;2024-03-23T07:22:35;20.55;;;7.60;;
20073;SDS011;10197;54.282;10.078;2024-03-23T07:25:02;24.63;;;7.60;;
20073;SDS011;10197;54.282;10.078;2024-03-23T07:27:28;29.42;;;8.77;;
20073;SDS011;10197;54.282;10.078;2024-03-23T07:29:55;33.55;;;7.88;;
20073;SDS011;10197;54.282;10.078;2024-03-23T07:32:22;33.10;;;9.10;;
20073;SDS011;10197;54.282;10.078;2024-03-23T07:34:49;26.90;;;8.68;;
20073;SDS011;10197;54.282;10.078;2024-03-23T07:37:14;25.05;;;7.05;;
20073;SDS011;10197;54.282;10.078;2024-03-23T07:39:41;25.42;;;8.45;;
20073;SDS011;10197;54.282;10.078;2024-03-23T07:42:07;25.05;;;7.90;;
20073;SDS011;10197;54.282;10.078;2024-03-23T07:44:33;28.95;;;8.73;;
20073;SDS011;10197;54.282;10.078;2024-03-23T07:47:00;31.20;;;9.10;;
20073;SDS011;10197;54.282;10.078;2024-03-23T07:49:27;25.73;;;8.40;;
20073;SDS011;10197;54.282;10.078;2024-03-23T07:51:54;27.38;;;8.50;;
20073;SDS011;10197;54.282;10.078;2024-03-23T07:54:20;32.20;;;8.43;;
20073;SDS011;10197;54.282;10.078;2024-03-23T07:56:46;26.58;;;9.15;;
20073;SDS011;10197;54.282;10.078;2024-03-23T07:59:12;30.27;;;8.73;;
20073;SDS011;10197;54.282;10.078;2024-03-23T08:01:38;35.15;;;8.85;;
20073;SDS011;10197;54.282;10.078;2024-03-23T08:04:05;25.15;;;8.80;;
20073;SDS011;10197;54.282;10.078;2024-03-23T08:06:33;24.63;;;8.23;;
20073;SDS011;10197;54.282;10.078;2024-03-23T08:08:59;29.13;;;9.10;;
20073;SDS011;10197;54.282;10.078;2024-03-23T08:11:26;28.30;;;9.43;;
20073;SDS011;10197;54.282;10.078;2024-03-23T08:13:51;26.30;;;8.60;;
20073;SDS011;10197;54.282;10.078;2024-03-23T08:16:18;26.08;;;9.15;;
20073;SDS011;10197;54.282;10.078;2024-03-23T08:18:44;30.80;;;8.85;;
20073;SDS011;10197;54.282;10.078;2024-03-23T08:21:10;25.50;;;8.18;;
20073;SDS011;10197;54.282;10.078;2024-03-23T08:23:38;24.33;;;8.27;;
20073;SDS011;10197;54.282;10.078;2024-03-23T08:26:05;31.10;;;10.57;;
20073;SDS011;10197;54.282;10.078;2024-03-23T08:28:31;28.83;;;9.65;;
20073;SDS011;10197;54.282;10.078;2024-03-23T08:31:00;32.20;;;8.10;;
20073;SDS011;10197;54.282;10.078;2024-03-23T08:33:26;26.73;;;8.60;;
20073;SDS011;10197;54.282;10.078;2024-03-23T08:35:53;23.75;;;8.20;;
20073;SDS011;10197;54.282;10.078;2024-03-23T08:38:20;22.85;;;7.80;;
20073;SDS011;10197;54.282;10.078;2024-03-23T08:40:53;25.17;;;8.63;;
20073;SDS011;10197;54.282;10.078;2024-03-23T08:43:21;20.60;;;8.07;;
20073;SDS011;10197;54.282;10.078;2024-03-23T08:45:48;18.50;;;7.72;;
20073;SDS011;10197;54.282;10.078;2024-03-23T08:48:14;18.65;;;7.40;;
20073;SDS011;10197;54.282;10.078;2024-03-23T08:50:41;18.15;;;6.38;;
20073;SDS011;10197;54.282;10.078;2024-03-23T08:53:06;18.60;;;6.97;;
20073;SDS011;10197;54.282;10.078;2024-03-23T08:55:33;18.73;;;6.22;;
20073;SDS011;10197;54.282;10.078;2024-03-23T08:58:00;21.25;;;5.88;;
20073;SDS011;10197;54.282;10.078;2024-03-23T09:00:27;17.65;;;5.70;;
20073;SDS011;10197;54.282;10.078;2024-03-23T09:02:52;20.00;;;5.75;;
20073;SDS011;10197;54.282;10.078;2024-03-23T09:05:20;19.27;;;5.38;;
20073;SDS011;10197;54.282;10.078;2024-03-23T09:07:46;22.80;;;5.53;;
20073;SDS011;10197;54.282;10.078;2024-03-23T09:10:15;15.85;;;4.78;;
20073;SDS011;10197;54.282;10.078;2024-03-23T09:12:41;19.83;;;5.65;;
20073;SDS011;10197;54.282;10.078;2024-03-23T09:15:09;18.90;;;4.88;;
20073;SDS011;10197;54.282;10.078;2024-03-23T09:17:35;17.40;;;4.45;;
20073;SDS011;10197;54.282;10.078;2024-03-23T09:20:02;12.30;;;4.57;;
20073;SDS011;10197;54.282;10.078;2024-03-23T09:22:30;18.98;;;5.45;;
20073;SDS011;10197;54.282;10.078;2024-03-23T09:24:56;19.33;;;4.72;;
20073;SDS011;10197;54.282;10.078;2024-03-23T09:27:22;17.50;;;4.40;;
20073;SDS011;10197;54.282;10.078;2024-03-23T09:29:48;17.27;;;4.22;;
20073;SDS011;10197;54.282;10.078;2024-03-23T09:32:16;15.85;;;4.38;;
20073;SDS011;10197;54.282;10.078;2024-03-23T09:34:43;14.43;;;3.97;;
20073;SDS011;10197;54.282;10.078;2024-03-23T09:37:08;15.68;;;3.70;;
20073;SDS011;10197;54.282;10.078;2024-03-23T09:39:35;9.27;;;4.05;;
20073;SDS011;10197;54.282;10.078;2024-03-23T09:42:01;6.82;;;2.33;;
20073;SDS011;10197;54.282;10.078;2024-03-23T09:44:27;4.10;;;1.92;;
20073;SDS011;10197;54.282;10.078;2024-03-23T09:46:54;3.03;;;1.65;;
20073;SDS011;10197;54.282;10.078;2024-03-23T09:49:22;3.67;;;1.80;;
20073;SDS011;10197;54.282;10.078;2024-03-23T09:51:48;3.90;;;1.70;;
20073;SDS011;10197;54.282;10.078;2024-03-23T09:54:16;4.65;;;2.13;;
20073;SDS011;10197;54.282;10.078;2024-03-23T09:56:41;3.95;;;1.90;;
20073;SDS011;10197;54.282;10.078;2024-03-23T09:59:08;4.45;;;2.00;;
20073;SDS011;10197;54.282;10.078;2024-03-23T10:01:34;8.23;;;2.50;;
20073;SDS011;10197;54.282;10.078;2024-03-23T10:04:01;8.98;;;2.63;;
20073;SDS011;10197;54.282;10.078;2024-03-23T10:06:30;8.93;;;3.05;;
20073;SDS011;10197;54.282;10.078;2024-03-23T10:08:56;11.48;;;3.42;;
20073;SDS011;10197;54.282;10.078;2024-03-23T10:11:22;13.60;;;3.20;;
20073;SDS011;10197;54.282;10.078;2024-03-23T10:13:50;10.60;;;3.17;;
20073;SDS011;10197;54.282;10.078;2024-03-23T10:16:22;8.07;;;2.67;;
20073;SDS011;10197;54.282;10.078;2024-03-23T10:18:52;9.27;;;2.90;;
20073;SDS011;10197;54.282;10.078;2024-03-23T10:21:18;7.47;;;2.40;;
20073;SDS011;10197;54.282;10.078;2024-03-23T10:23:46;9.50;;;3.22;;
20073;SDS011;10197;54.282;10.078;2024-03-23T10:26:18;9.07;;;2.60;;
20073;SDS011;10197;54.282;10.078;2024-03-23T10:28:56;9.68;;;2.60;;
20073;SDS011;10197;54.282;10.078;2024-03-23T10:31:24;8.52;;;2.75;;
20073;SDS011;10197;54.282;10.078;2024-03-23T10:33:51;9.95;;;3.10;;
20073;SDS011;10197;54.282;10.078;2024-03-23T10:36:19;12.55;;;2.92;;
20073;SDS011;10197;54.282;10.078;2024-03-23T10:38:49;12.52;;;3.40;;
20073;SDS011;10197;54.282;10.078;2024-03-23T10:41:15;15.98;;;3.00;;
20073;SDS011;10197;54.282;10.078;2024-03-23T10:43:42;13.57;;;3.97;;
20073;SDS011;10197;54.282;10.078;2024-03-23T10:46:08;15.82;;;3.72;;
20073;SDS011;10197;54.282;10.078;2024-03-23T10:48:35;10.00;;;3.05;;
20073;SDS011;10197;54.282;10.078;2024-03-23T10:51:01;11.82;;;3.17;;
20073;SDS011;10197;54.282;10.078;2024-03-23T10:53:28;16.63;;;3.88;;
20073;SDS011;10197;54.282;10.078;2024-03-23T10:55:56;16.75;;;3.90;;
20073;SDS011;10197;54.282;10.078;2024-03-23T10:58:24;15.65;;;3.85;;
20073;SDS011;10197;54.282;10.078;2024-03-23T11:00:52;17.35;;;4.25;;
20073;SDS011;10197;54.282;10.078;2024-03-23T11:03:29;13.25;;;3.60;;
20073;SDS011;10197;54.282;10.078;2024-03-23T11:05:55;14.45;;;4.82;;
20073;SDS011;10197;54.282;10.078;2024-03-23T11:08:29;10.73;;;3.45;;
20073;SDS011;10197;54.282;10.078;2024-03-23T11:11:09;10.60;;;2.67;;
20073;SDS011;10197;54.282;10.078;2024-03-23T11:13:38;8.82;;;2.83;;
20073;SDS011;10197;54.282;10.078;2024-03-23T11:16:12;9.23;;;2.95;;
20073;SDS011;10197;54.282;10.078;2024-03-23T11:18:39;11.00;;;2.65;;
20073;SDS011;10197;54.282;10.078;2024-03-23T11:21:06;7.93;;;2.45;;
20073;SDS011;10197;54.282;10.078;2024-03-23T11:23:33;9.50;;;3.08;;
20073;SDS011;10197;54.282;10.078;2024-03-23T11:25:58;9.57;;;2.65;;
20073;SDS011;10197;54.282;10.078;2024-03-23T11:28:27;13.95;;;3.10;;
20073;SDS011;10197;54.282;10.078;2024-03-23T11:30:52;11.07;;;3.08;;
20073;SDS011;10197;54.282;10.078;2024-03-23T11:33:19;12.07;;;3.28;;
20073;SDS011;10197;54.282;10.078;2024-03-23T11:35:45;12.45;;;2.90;;
20073;SDS011;10197;54.282;10.078;2024-03-23T11:38:12;14.90;;;3.05;;
20073;SDS011;10197;54.282;10.078;2024-03-23T11:40:39;6.43;;;1.70;;
20073;SDS011;10197;54.282;10.078;2024-03-23T11:43:07;4.00;;;1.42;;
20073;SDS011;10197;54.282;10.078;2024-03-23T11:45:35;3.88;;;1.40;;
20073;SDS011;10197;54.282;10.078;2024-03-23T11:48:04;5.18;;;1.58;;
20073;SDS011;10197;54.282;10.078;2024-03-23T11:50:31;5.25;;;1.60;;
20073;SDS011;10197;54.282;10.078;2024-03-23T11:53:07;6.00;;;1.98;;
20073;SDS011;10197;54.282;10.078;2024-03-23T11:55:43;4.63;;;1.65;;
20073;SDS011;10197;54.282;10.078;2024-03-23T11:58:12;5.65;;;1.85;;
20073;SDS011;10197;54.282;10.078;2024-03-23T12:00:39;8.85;;;2.40;;
20073;SDS011;10197;54.282;10.078;2024-03-23T12:03:06;13.77;;;2.78;;
20073;SDS011;10197;54.282;10.078;2024-03-23T12:05:32;6.30;;;2.50;;
20073;SDS011;10197;54.282;10.078;2024-03-23T12:08:18;11.95;;;2.55;;
20073;SDS011;10197;54.282;10.078;2024-03-23T12:10:46;9.85;;;2.50;;
20073;SDS011;10197;54.282;10.078;2024-03-23T12:13:14;10.00;;;2.40;;
20073;SDS011;10197;54.282;10.078;2024-03-23T12:15:43;14.25;;;2.88;;
20073;SDS011;10197;54.282;10.078;2024-03-23T12:18:11;9.45;;;2.50;;
20073;SDS011;10197;54.282;10.078;2024-03-23T12:20:37;10.38;;;2.60;;
20073;SDS011;10197;54.282;10.078;2024-03-23T12:23:04;9.65;;;2.70;;
20073;SDS011;10197;54.282;10.078;2024-03-23T12:25:31;7.25;;;2.55;;
20073;SDS011;10197;54.282;10.078;2024-03-23T12:27:58;8.25;;;3.10;;
20073;SDS011;10197;54.282;10.078;2024-03-23T12:30:24;8.23;;;2.10;;
20073;SDS011;10197;54.282;10.078;2024-03-23T12:32:53;5.50;;;1.70;;
20073;SDS011;10197;54.282;10.078;2024-03-23T12:35:19;5.97;;;1.85;;
20073;SDS011;10197;54.282;10.078;2024-03-23T12:37:45;6.68;;;2.00;;
20073;SDS011;10197;54.282;10.078;2024-03-23T12:40:11;8.25;;;2.25;;
20073;SDS011;10197;54.282;10.078;2024-03-23T12:42:38;8.38;;;2.30;;
20073;SDS011;10197;54.282;10.078;2024-03-23T12:45:04;12.23;;;2.60;;
20073;SDS011;10197;54.282;10.078;2024-03-23T12:47:31;6.05;;;2.33;;
20073;SDS011;10197;54.282;10.078;2024-03-23T12:49:59;10.55;;;2.20;;
20073;SDS011;10197;54.282;10.078;2024-03-23T12:52:25;10.00;;;2.40;;
20073;SDS011;10197;54.282;10.078;2024-03-23T12:54:54;10.90;;;2.95;;
20073;SDS011;10197;54.282;10.078;2024-03-23T12:57:21;8.23;;;2.53;;
20073;SDS011;10197;54.282;10.078;2024-03-23T12:59:49;9.00;;;2.53;;
20073;SDS011;10197;54.282;10.078;2024-03-23T13:02:16;8.10;;;2.70;;
20073;SDS011;10197;54.282;10.078;2024-03-23T13:04:45;6.75;;;2.30;;
20073;SDS011;10197;54.282;10.078;2024-03-23T13:07:12;9.25;;;2.65;;
20073;SDS011;10197;54.282;10.078;2024-03-23T13:09:39;5.97;;;2.03;;
20073;SDS011;10197;54.282;10.078;2024-03-23T13:12:05;10.07;;;2.30;;
20073;SDS011;10197;54.282;10.078;2024-03-23T13:14:32;9.32;;;2.35;;
20073;SDS011;10197;54.282;10.078;2024-03-23T13:16:58;12.98;;;2.80;;
20073;SDS011;10197;54.282;10.078;2024-03-23T13:19:25;10.10;;;2.75;;
20073;SDS011;10197;54.282;10.078;2024-03-23T13:21:52;6.50;;;2.25;;
20073;SDS011;10197;54.282;10.078;2024-03-23T13:24:22;9.02;;;2.40;;
20073;SDS011;10197;54.282;10.078;2024-03-23T13:26:49;8.02;;;2.85;;
20073;SDS011;10197;54.282;10.078;2024-03-23T13:29:16;8.68;;;2.47;;
20073;SDS011;10197;54.282;10.078;2024-03-23T13:31:42;13.75;;;2.70;;
20073;SDS011;10197;54.282;10.078;2024-03-23T13:34:09;10.65;;;2.30;;
20073;SDS011;10197;54.282;10.078;2024-03-23T13:36:35;13.38;;;2.97;;
20073;SDS011;10197;54.282;10.078;2024-03-23T13:39:02;10.13;;;2.20;;
20073;SDS011;10197;54.282;10.078;2024-03-23T13:41:32;7.13;;;2.10;;
20073;SDS011;10197;54.282;10.078;2024-03-23T13:43:59;8.60;;;2.70;;
20073;SDS011;10197;54.282;10.078;2024-03-23T13:46:25;8.60;;;2.63;;
20073;SDS011;10197;54.282;10.078;2024-03-23T13:48:52;9.80;;;2.58;;
20073;SDS011;10197;54.282;10.078;2024-03-23T13:51:22;8.05;;;2.63;;
20073;SDS011;10197;54.282;10.078;2024-03-23T13:53:50;8.48;;;2.70;;
20073;SDS011;10197;54.282;10.078;2024-03-23T13:56:16;11.38;;;2.88;;
20073;SDS011;10197;54.282;10.078;2024-03-23T13:58:44;6.28;;;2.13;;
20073;SDS011;10197;54.282;10.078;2024-03-23T14:01:12;8.63;;;2.40;;
20073;SDS011;10197;54.282;10.078;2024-03-23T14:03:39;6.78;;;2.17;;
20073;SDS011;10197;54.282;10.078;2024-03-23T14:06:05;6.80;;;2.13;;
20073;SDS011;10197;54.282;10.078;2024-03-23T14:08:33;14.70;;;2.28;;
20073;SDS011;10197;54.282;10.078;2024-03-23T14:11:01;8.65;;;2.53;;
20073;SDS011;10197;54.282;10.078;2024-03-23T14:13:30;11.55;;;2.90;;
20073;SDS011;10197;54.282;10.078;2024-03-23T14:15:57;12.52;;;3.25;;
20073;SDS011;10197;54.282;10.078;2024-03-23T14:18:24;8.52;;;2.35;;
20073;SDS011;10197;54.282;10.078;2024-03-23T14:20:51;11.05;;;2.60;;
20073;SDS011;10197;54.282;10.078;2024-03-23T14:23:18;11.60;;;2.53;;
20073;SDS011;10197;54.282;10.078;2024-03-23T14:25:44;5.25;;;2.10;;
20073;SDS011;10197;54.282;10.078;2024-03-23T14:28:10;8.00;;;2.70;;
20073;SDS011;10197;54.282;10.078;2024-03-23T14:30:39;8.40;;;2.50;;
20073;SDS011;10197;54.282;10.078;2024-03-23T14:33:08;8.27;;;2.65;;
20073;SDS011;10197;54.282;10.078;2024-03-23T14:35:34;7.82;;;2.30;;
20073;SDS011;10197;54.282;10.078;2024-03-23T14:38:00;11.00;;;2.78;;
20073;SDS011;10197;54.282;10.078;2024-03-23T14:40:26;7.05;;;2.92;;
20073;SDS011;10197;54.282;10.078;2024-03-23T14:42:53;8.80;;;2.70;;
20073;SDS011;10197;54.282;10.078;2024-03-23T14:45:19;9.75;;;2.97;;
20073;SDS011;10197;54.282;10.078;2024-03-23T14:47:46;16.17;;;3.55;;
20073;SDS011;10197;54.282;10.078;2024-03-23T14:50:13;9.13;;;2.83;;
20073;SDS011;10197;54.282;10.078;2024-03-23T14:52:42;7.32;;;2.92;;
20073;SDS011;10197;54.282;10.078;2024-03-23T14:55:07;9.25;;;2.72;;
20073;SDS011;10197;54.282;10.078;2024-03-23T14:57:35;9.30;;;2.45;;
20073;SDS011;10197;54.282;10.078;2024-03-23T15:00:00;8.40;;;2.97;;
20073;SDS011;10197;54.282;10.078;2024-03-23T15:02:30;11.52;;;2.72;;
20073;SDS011;10197;54.282;10.078;2024-03-23T15:04:57;8.70;;;2.67;;
20073;SDS011;10197;54.282;10.078;2024-03-23T15:07:26;11.18;;;2.38;;
20073;SDS011;10197;54.282;10.078;2024-03-23T15:09:52;8.07;;;2.50;;
20073;SDS011;10197;54.282;10.078;2024-03-23T15:12:20;9.80;;;2.88;;
20073;SDS011;10197;54.282;10.078;2024-03-23T15:14:46;11.63;;;2.92;;
20073;SDS011;10197;54.282;10.078;2024-03-23T15:17:13;8.10;;;2.60;;
20073;SDS011;10197;54.282;10.078;2024-03-23T15:19:39;7.63;;;2.53;;